createdAt,value
2023-05-17T00:00:03.633Z,95205.63
2023-05-17T00:02:31.363Z,95207.41
2023-05-17T00:05:00.446Z,95212.66
2023-05-17T00:07:28.105Z,95215.44
2023-05-17T00:09:55.851Z,95211.03
2023-05-17T00:12:23.767Z,95212.97
2023-05-17T00:14:51.427Z,95211.16
2023-05-17T00:17:19.037Z,95220.66
2023-05-17T00:19:46.801Z,95220.00
2023-05-17T00:22:16.066Z,95223.47
2023-05-17T00:24:44.047Z,95230.31
2023-05-17T00:27:11.682Z,95228.69
2023-05-17T00:29:39.310Z,95232.28
2023-05-17T00:32:07.595Z,95235.06
2023-05-17T00:34:35.352Z,95236.69
2023-05-17T00:37:03.157Z,95235.88
2023-05-17T00:39:32.144Z,95240.97
2023-05-17T00:42:01.922Z,95241.94
2023-05-17T00:44:29.580Z,95240.13
2023-05-17T00:46:59.631Z,95243.59
2023-05-17T00:49:27.720Z,95233.94
2023-05-17T00:51:55.929Z,95238.00
2023-05-17T00:54:23.991Z,95241.78
2023-05-17T00:56:53.484Z,95232.94
2023-05-17T00:59:22.394Z,95235.38
2023-05-17T01:01:51.460Z,95235.56
2023-05-17T01:04:19.759Z,95240.63
2023-05-17T01:06:47.513Z,95242.28
2023-05-17T01:09:15.265Z,95243.41
2023-05-17T01:11:54.984Z,95246.88
2023-05-17T01:14:34.902Z,95246.03
2023-05-17T01:17:07.083Z,95239.97
2023-05-17T01:19:55.198Z,95244.41
2023-05-17T01:22:35.308Z,95246.19
2023-05-17T01:25:13.822Z,95251.44
2023-05-17T01:27:48.103Z,95255.03
2023-05-17T01:30:18.983Z,95249.97
2023-05-17T01:32:48.966Z,95253.41
2023-05-17T01:35:18.939Z,95267.47
2023-05-17T01:37:48.183Z,95259.59
2023-05-17T01:40:19.017Z,95262.38
2023-05-17T01:42:54.579Z,95260.59
2023-05-17T01:45:28.466Z,95261.41
2023-05-17T01:48:17.484Z,95262.38
2023-05-17T01:50:51.554Z,95265.00
2023-05-17T01:53:27.981Z,95265.97
2023-05-17T01:56:05.483Z,95272.03
2023-05-17T01:58:45.730Z,95267.78
2023-05-17T02:01:18.596Z,95270.41
2023-05-17T02:03:51.082Z,95266.97
2023-05-17T02:06:20.384Z,95269.41
2023-05-17T02:08:49.984Z,95269.59
2023-05-17T02:11:19.328Z,95271.22
2023-05-17T02:13:50.052Z,95263.53
2023-05-17T02:16:19.419Z,95269.59
2023-05-17T02:18:48.548Z,95273.03
2023-05-17T02:21:18.916Z,95285.13
2023-05-17T02:23:49.041Z,95284.97
2023-05-17T02:26:24.252Z,95276.31
2023-05-17T02:28:55.171Z,95285.78
2023-05-17T02:31:25.333Z,95274.50
2023-05-17T02:33:55.200Z,95285.78
2023-05-17T02:36:24.466Z,95276.31
2023-05-17T02:38:53.766Z,95284.16
2023-05-17T02:41:23.286Z,95271.88
2023-05-17T02:43:52.626Z,95283.19
2023-05-17T02:46:23.566Z,95278.09
2023-05-17T02:48:52.951Z,95289.41
2023-05-17T02:51:22.148Z,95291.03
2023-05-17T02:53:51.244Z,95291.38
2023-05-17T02:56:20.535Z,95295.59
2023-05-17T02:58:49.893Z,95296.59
2023-05-17T03:01:19.052Z,95296.59
2023-05-17T03:03:52.215Z,95300.19
2023-05-17T03:06:23.516Z,95304.59
2023-05-17T03:09:08.828Z,95311.50
2023-05-17T03:11:38.057Z,95311.63
2023-05-17T03:14:11.559Z,95309.00
2023-05-17T03:16:40.989Z,95317.69
2023-05-17T03:19:12.815Z,95313.41
2023-05-17T03:21:42.266Z,95322.94
2023-05-17T03:24:11.645Z,95330.91
2023-05-17T03:26:41.076Z,95329.97
2023-05-17T03:29:10.250Z,95329.13
2023-05-17T03:31:40.068Z,95340.44
2023-05-17T03:34:09.480Z,95334.38
2023-05-17T03:36:41.140Z,95340.56
2023-05-17T03:39:10.380Z,95340.56
2023-05-17T03:41:39.621Z,95345.81
2023-05-17T03:44:22.665Z,95353.66
2023-05-17T03:46:54.031Z,95352.03
2023-05-17T03:49:23.389Z,95354.66
2023-05-17T03:51:54.152Z,95362.50
2023-05-17T03:54:23.517Z,95362.34
2023-05-17T03:56:52.706Z,95368.41
2023-05-17T03:59:21.891Z,95371.84
2023-05-17T04:01:51.229Z,95382.34
2023-05-17T04:04:20.360Z,95377.94
2023-05-17T05:10:33.811Z,95454.75
2023-05-17T07:23:25.377Z,95529.59
2023-05-17T07:25:53.025Z,95534.97
2023-05-17T07:28:20.652Z,95530.56
2023-05-17T07:30:48.341Z,95533.31
2023-05-17T07:33:16.062Z,95528.09
2023-05-17T07:35:43.696Z,95533.31
2023-05-17T07:38:11.572Z,95531.69
2023-05-17T07:40:40.666Z,95544.78
2023-05-17T07:43:13.275Z,95538.72
2023-05-17T07:45:41.008Z,95534.31
2023-05-17T07:48:08.925Z,95536.94
2023-05-17T07:50:36.692Z,95536.09
2023-05-17T07:53:04.334Z,95531.69
2023-05-17T07:55:31.953Z,95532.81
2023-05-17T07:58:01.097Z,95533.66
2023-05-17T08:00:29.266Z,95533.66
2023-05-17T08:02:57.448Z,95537.22
2023-05-17T08:05:25.373Z,95531.16
2023-05-17T08:07:53.448Z,95532.00
2023-05-17T08:10:21.496Z,95533.78
2023-05-17T08:12:49.138Z,95536.41
2023-05-17T08:15:18.128Z,95539.84
2023-05-17T08:17:45.904Z,95536.41
2023-05-17T08:20:14.010Z,95533.78
2023-05-17T08:22:41.676Z,95540.84
2023-05-17T08:25:09.799Z,95539.84
2023-05-17T08:27:37.473Z,95539.00
2023-05-17T08:30:09.155Z,95548.53
2023-05-17T08:32:41.010Z,95546.88
2023-05-17T08:35:08.953Z,95552.94
2023-05-17T08:37:36.890Z,95556.22
2023-05-17T08:40:05.123Z,95548.38
2023-05-17T08:42:33.471Z,95553.59
2023-05-17T08:45:01.176Z,95551.00
2023-05-17T08:47:32.221Z,95549.03
2023-05-17T08:50:02.286Z,95553.47
2023-05-17T08:52:31.450Z,95552.66
2023-05-17T08:54:59.395Z,95552.66
2023-05-17T08:57:29.065Z,95545.63
2023-05-17T08:59:57.123Z,95555.28
2023-05-17T09:02:25.619Z,95562.28
2023-05-17T09:04:55.792Z,95558.84
2023-05-17T09:07:25.658Z,95563.13
2023-05-17T09:09:54.113Z,95571.94
2023-05-17T09:12:23.495Z,95573.72
2023-05-17T09:14:53.136Z,95576.34
2023-05-17T09:17:21.822Z,95579.97
2023-05-17T09:19:50.370Z,95574.72
2023-05-17T09:22:19.804Z,95578.16
2023-05-17T09:24:48.921Z,95581.75
2023-05-17T09:27:18.259Z,95584.38
2023-05-17T09:29:47.661Z,95583.53
2023-05-17T09:32:16.499Z,95578.31
2023-05-17T09:34:46.909Z,95585.34
2023-05-17T09:37:16.314Z,95583.53
2023-05-17T09:39:46.040Z,95576.66
2023-05-17T09:42:16.778Z,95581.09
2023-05-17T09:44:49.396Z,95575.84
2023-05-17T09:47:27.502Z,95574.88
2023-05-17T09:49:57.404Z,95568.97
2023-05-17T09:52:25.861Z,95575.84
2023-05-17T09:54:54.568Z,95573.22
2023-05-17T09:57:24.059Z,95571.59
2023-05-17T09:59:53.069Z,95576.84
2023-05-17T10:02:23.597Z,95582.06
2023-05-17T10:04:52.626Z,95575.84
2023-05-17T10:07:21.440Z,95574.22
2023-05-17T10:09:50.518Z,95571.44
2023-05-17T10:12:20.053Z,95566.19
2023-05-17T10:14:49.844Z,95570.59
2023-05-17T10:17:19.360Z,95571.59
2023-05-17T10:19:48.159Z,95569.66
2023-05-17T10:22:23.117Z,95576.66
2023-05-17T10:24:52.332Z,95568.81
2023-05-17T10:27:21.561Z,95554.88
2023-05-17T10:29:53.040Z,95558.34
2023-05-17T10:32:23.380Z,95565.38
2023-05-17T10:35:02.038Z,95560.97
2023-05-17T10:37:39.969Z,95566.19
2023-05-17T10:40:12.968Z,95560.97
2023-05-17T10:42:43.444Z,95560.13
2023-05-17T10:45:14.715Z,95566.19
2023-05-17T10:47:43.511Z,95561.78
2023-05-17T10:50:14.906Z,95559.97
2023-05-17T10:52:48.294Z,95555.56
2023-05-17T10:55:19.798Z,95556.38
2023-05-17T10:58:10.419Z,95550.16
2023-05-17T11:00:42.336Z,95548.38
2023-05-17T11:03:15.303Z,95550.16
2023-05-17T11:05:44.716Z,95546.59
2023-05-17T11:08:17.764Z,95551.81
2023-05-17T11:11:10.130Z,95548.38
2023-05-17T11:13:52.292Z,95546.59
2023-05-17T11:16:24.141Z,95538.88
2023-05-17T11:18:53.520Z,95534.31
2023-05-17T11:21:25.563Z,95532.53
2023-05-17T11:23:56.635Z,95531.69
2023-05-17T11:26:29.569Z,95538.56
2023-05-17T11:29:03.291Z,95534.16
2023-05-17T11:31:33.484Z,95536.78
2023-05-17T11:34:01.601Z,95541.84
2023-05-17T11:36:29.257Z,95538.44
2023-05-17T11:39:13.884Z,95537.44
2023-05-17T11:41:49.614Z,95538.28
2023-05-17T11:44:19.318Z,95539.09
2023-05-17T11:46:48.396Z,95544.34
2023-05-17T11:49:26.859Z,95538.09
2023-05-17T11:52:01.520Z,95545.97
2023-05-17T11:54:31.159Z,95549.41
2023-05-17T11:56:59.848Z,95546.78
2023-05-17T11:59:27.535Z,95545.97
2023-05-17T12:01:56.536Z,95548.47
2023-05-17T12:04:25.887Z,95546.63
2023-05-17T12:06:54.409Z,95545.84
2023-05-17T12:09:23.259Z,95548.47
2023-05-17T12:11:51.056Z,95545.00
2023-05-17T12:14:20.355Z,95545.84
2023-05-17T12:16:52.096Z,95543.22
2023-05-17T12:19:23.471Z,95545.84
2023-05-17T12:21:51.716Z,95544.00
2023-05-17T12:24:19.496Z,95556.31
2023-05-17T12:26:48.385Z,95551.88
2023-05-17T12:29:22.756Z,95558.09
2023-05-17T12:31:53.380Z,95555.47
2023-05-17T12:34:23.327Z,95558.94
2023-05-17T12:36:52.608Z,95567.59
2023-05-17T12:39:23.901Z,95553.69
2023-05-17T12:41:52.541Z,95562.34
2023-05-17T12:44:21.040Z,95558.94
2023-05-17T12:46:53.441Z,95552.88
2023-05-17T12:49:23.137Z,95554.66
2023-05-17T12:51:51.007Z,95558.09
2023-05-17T12:54:27.304Z,95552.03
2023-05-17T12:56:55.220Z,95552.03
2023-05-17T12:59:25.518Z,95548.47
2023-05-17T13:01:55.573Z,95554.81
2023-05-17T13:04:31.665Z,95552.88
2023-05-17T13:07:01.634Z,95552.03
2023-05-17T13:09:32.093Z,95548.47
2023-05-17T13:12:01.129Z,95547.47
2023-05-17T13:14:38.806Z,95544.84
2023-05-17T13:17:08.117Z,95550.09
2023-05-17T13:19:38.220Z,95546.50
2023-05-17T13:22:06.944Z,95541.25
2023-05-17T13:24:35.733Z,95546.50
2023-05-17T13:27:03.926Z,95551.75
2023-05-17T13:29:39.332Z,95544.69
2023-05-17T13:32:09.797Z,95550.75
2023-05-17T13:34:39.398Z,95553.38
2023-05-17T13:37:10.551Z,95551.75
2023-05-17T13:39:39.582Z,95544.69
2023-05-17T13:42:07.980Z,95548.13
2023-05-17T13:44:35.600Z,95543.72
2023-05-17T13:47:03.589Z,95545.50
2023-05-17T13:49:31.308Z,95543.88
2023-05-17T13:52:00.701Z,95541.25
2023-05-17T13:54:28.444Z,95548.13
2023-05-17T13:56:57.388Z,95542.22
2023-05-17T13:59:25.035Z,95544.69
2023-05-17T14:01:53.078Z,95543.06
2023-05-17T14:04:21.294Z,95538.66
2023-05-17T14:06:49.559Z,95546.50
2023-05-17T14:09:20.352Z,95538.66
2023-05-17T14:11:48.104Z,95544.69
2023-05-17T14:14:15.788Z,95550.91
2023-05-17T14:16:43.452Z,95548.28
2023-05-17T14:19:11.301Z,95546.50
2023-05-17T14:21:39.034Z,95545.69
2023-05-17T14:24:07.326Z,95540.44
2023-05-17T14:26:36.727Z,95538.66
2023-05-17T14:29:05.597Z,95536.03
2023-05-17T14:31:33.354Z,95543.88
2023-05-17T14:34:01.663Z,95540.28
2023-05-17T14:36:29.438Z,95529.97
2023-05-17T14:38:57.103Z,95538.47
2023-05-17T14:41:24.735Z,95539.44
2023-05-17T14:43:53.726Z,95534.06
2023-05-17T14:46:21.405Z,95536.81
2023-05-17T14:48:52.016Z,95541.09
2023-05-17T14:51:19.838Z,95535.88
2023-05-17T14:53:47.703Z,95545.38
2023-05-17T14:56:16.750Z,95540.28
2023-05-17T14:58:44.475Z,95546.34
2023-05-17T15:01:13.493Z,95549.78
2023-05-17T15:03:41.296Z,95547.19
2023-05-17T15:06:11.674Z,95546.19
2023-05-17T15:08:39.745Z,95549.63
2023-05-17T15:11:07.511Z,95540.94
2023-05-17T15:13:35.242Z,95553.25
2023-05-17T15:16:04.954Z,95543.56
2023-05-17T15:18:34.013Z,95552.41
2023-05-17T15:21:02.859Z,95548.00
2023-05-17T15:23:30.641Z,95548.13
2023-05-17T15:25:58.339Z,95542.91
2023-05-17T15:28:26.137Z,95556.00
2023-05-17T15:31:01.550Z,95548.13
2023-05-17T15:33:30.712Z,95548.97
2023-05-17T15:35:59.763Z,95554.19
2023-05-17T15:38:27.409Z,95550.75
2023-05-17T15:41:03.860Z,95555.16
2023-05-17T15:43:32.188Z,95559.59
2023-05-17T15:46:00.120Z,95553.38
2023-05-17T15:48:29.230Z,95551.75
2023-05-17T15:50:57.334Z,95555.31
2023-05-17T15:53:27.122Z,95557.94
2023-05-17T15:55:54.884Z,95556.31
2023-05-17T15:58:24.253Z,95562.34
2023-05-17T16:00:52.332Z,95559.91
2023-05-17T16:03:20.051Z,95560.72
2023-05-17T16:05:47.797Z,95563.34
2023-05-17T16:08:15.571Z,95559.91
2023-05-17T16:10:45.921Z,95551.06
2023-05-17T16:13:13.634Z,95562.34
2023-05-17T16:15:41.367Z,95558.94
2023-05-17T16:18:10.622Z,95566.63
2023-05-17T16:20:38.506Z,95570.09
2023-05-17T16:23:07.337Z,95566.47
2023-05-17T16:25:36.036Z,95571.59
2023-05-17T16:28:05.113Z,95566.34
2023-05-17T16:30:32.760Z,95570.59
2023-05-17T16:33:00.449Z,95570.59
2023-05-17T16:35:28.804Z,95571.41
2023-05-17T16:37:56.619Z,95575.81
2023-05-17T16:40:24.311Z,95580.91
2023-05-17T16:42:51.923Z,95573.22
2023-05-17T16:45:21.334Z,95581.75
2023-05-17T16:47:49.017Z,95581.91
2023-05-17T16:50:16.841Z,95581.75
2023-05-17T16:52:45.441Z,95587.97
2023-05-17T16:55:13.163Z,95589.59
2023-05-17T16:57:41.966Z,95586.16
2023-05-17T17:00:11.978Z,95594.00
2023-05-17T17:02:41.161Z,95593.22
2023-05-17T17:05:10.334Z,95594.00
2023-05-17T17:07:37.991Z,95596.63
2023-05-17T17:10:06.268Z,95598.44
2023-05-17T17:12:33.925Z,95597.47
2023-05-17T17:15:02.186Z,95597.59
2023-05-17T17:17:30.631Z,95608.41
2023-05-17T17:19:59.722Z,95601.75
2023-05-17T17:22:27.371Z,95601.66
2023-05-17T17:24:55.027Z,95617.13
2023-05-17T17:27:22.681Z,95607.91
2023-05-17T17:29:50.493Z,95609.03
2023-05-17T17:32:18.196Z,95622.16
2023-05-17T17:34:45.957Z,95623.41
2023-05-17T17:37:15.052Z,95622.69
2023-05-17T17:39:42.848Z,95624.19
2023-05-17T17:42:10.580Z,95619.81
2023-05-17T17:44:38.416Z,95631.06
2023-05-17T17:47:06.373Z,95627.50
2023-05-17T17:49:35.953Z,95627.94
2023-05-17T17:52:03.595Z,95632.50
2023-05-17T17:54:32.613Z,95634.66
2023-05-17T17:57:00.240Z,95645.69
2023-05-17T17:59:27.860Z,95638.25
2023-05-17T18:01:55.514Z,95644.44
2023-05-17T18:04:23.273Z,95645.69
2023-05-17T18:06:50.981Z,95648.88
2023-05-17T18:09:18.629Z,95654.91
2023-05-17T18:11:47.770Z,95651.22
2023-05-17T18:14:15.691Z,95655.19
2023-05-17T18:16:43.362Z,95650.28
2023-05-17T18:19:11.139Z,95655.78
2023-05-17T18:21:38.870Z,95663.31
2023-05-17T18:24:07.049Z,95656.97
2023-05-17T18:26:34.753Z,95670.34
2023-05-17T18:29:04.027Z,95664.84
2023-05-17T18:31:31.858Z,95666.78
2023-05-17T18:33:59.502Z,95674.34
2023-05-17T18:36:27.591Z,95671.03
2023-05-17T18:38:58.527Z,95673.09
2023-05-17T18:41:26.298Z,95678.03
2023-05-17T18:43:54.254Z,95678.56
2023-05-17T18:46:23.337Z,95676.63
2023-05-17T18:48:52.579Z,95686.41
2023-05-17T18:51:20.287Z,95685.00
2023-05-17T18:53:47.973Z,95690.38
2023-05-17T18:56:22.451Z,95696.00
2023-05-17T18:58:52.076Z,95690.66
2023-05-17T19:01:19.824Z,95691.59
2023-05-17T19:03:51.366Z,95690.81
2023-05-17T19:06:19.509Z,95691.34
2023-05-17T19:08:47.340Z,95703.03
2023-05-17T19:11:14.988Z,95701.38
2023-05-17T19:13:42.876Z,95698.13
2023-05-17T19:16:10.562Z,95700.59
2023-05-17T19:18:38.267Z,95707.44
2023-05-17T19:21:07.432Z,95704.84
2023-05-17T19:23:36.025Z,95706.63
2023-05-17T19:26:03.737Z,95718.13
2023-05-17T19:28:33.028Z,95720.06
2023-05-17T19:31:00.581Z,95714.00
2023-05-17T19:33:28.077Z,95722.34
2023-05-17T19:35:55.623Z,95722.09
2023-05-17T19:38:24.435Z,95723.31
2023-05-17T19:40:51.974Z,95726.69
2023-05-17T19:43:19.486Z,95725.31
2023-05-17T19:45:46.980Z,95726.00
2023-05-17T19:48:14.474Z,95730.41
2023-05-17T19:50:41.927Z,95734.41
2023-05-17T19:53:09.448Z,95729.44
2023-05-17T19:55:39.899Z,95734.25
2023-05-17T19:58:07.370Z,95732.34
2023-05-17T20:00:37.178Z,95724.81
2023-05-17T20:03:04.944Z,95725.34
2023-05-17T20:05:33.554Z,95732.50
2023-05-17T20:08:02.508Z,95730.81
2023-05-17T20:10:31.515Z,95725.84
2023-05-17T20:13:00.514Z,95722.22
2023-05-17T20:15:28.022Z,95727.88
2023-05-17T20:17:55.614Z,95733.41
2023-05-17T20:20:23.361Z,95727.34
2023-05-17T20:22:50.879Z,95731.59
2023-05-17T20:25:18.387Z,95734.03
2023-05-17T20:27:45.853Z,95739.84
2023-05-17T20:30:14.996Z,95737.97
2023-05-17T20:32:42.494Z,95737.97
2023-05-17T20:35:10.368Z,95734.50
2023-05-17T20:37:37.864Z,95747.25
2023-05-17T20:40:08.958Z,95741.72
2023-05-17T20:42:37.785Z,95741.16
2023-05-17T20:45:06.204Z,95744.72
2023-05-17T20:47:36.665Z,95741.16
2023-05-17T20:50:04.451Z,95740.78
2023-05-17T20:52:39.608Z,95735.94
2023-05-17T20:55:08.031Z,95744.03
2023-05-17T20:57:35.891Z,95747.09
2023-05-17T21:00:03.979Z,95738.63
2023-05-17T21:02:31.615Z,95748.75
2023-05-17T21:05:01.029Z,95751.22
2023-05-17T21:07:30.093Z,95754.53
2023-05-17T21:09:57.555Z,95752.28
2023-05-17T21:12:25.084Z,95750.59
2023-05-17T21:15:07.848Z,95751.66
2023-05-17T21:17:40.092Z,95741.25
2023-05-17T21:20:09.762Z,95747.03
2023-05-17T21:22:37.533Z,95752.50
2023-05-17T21:25:05.531Z,95750.47
2023-05-17T21:27:34.529Z,95751.72
2023-05-17T21:30:02.235Z,95753.81
2023-05-17T21:32:29.806Z,95744.75
2023-05-17T21:34:59.068Z,95742.38
2023-05-17T21:37:27.871Z,95744.63
2023-05-17T21:39:55.375Z,95747.91
2023-05-17T21:42:22.846Z,95742.22
2023-05-17T21:44:50.339Z,95743.16
2023-05-17T21:47:17.844Z,95738.88
2023-05-17T21:49:45.376Z,95743.91
2023-05-17T21:52:12.829Z,95735.47
2023-05-17T21:54:42.266Z,95744.34
2023-05-17T21:57:09.856Z,95742.03
2023-05-17T21:59:37.395Z,95732.31
2023-05-17T22:02:05.002Z,95742.06
2023-05-17T22:04:32.473Z,95745.50
2023-05-17T22:06:59.956Z,95734.94
2023-05-17T22:09:27.454Z,95738.25
2023-05-17T22:11:58.619Z,95732.66
2023-05-17T22:14:26.638Z,95730.25
2023-05-17T22:16:56.006Z,95728.72
2023-05-17T22:19:23.615Z,95727.72
2023-05-17T22:21:51.220Z,95726.53
2023-05-17T22:24:19.715Z,95726.56
2023-05-17T22:26:47.214Z,95727.94
2023-05-17T22:29:16.072Z,95712.41
2023-05-17T22:31:43.578Z,95715.44
2023-05-17T22:34:11.343Z,95720.81
2023-05-17T22:36:42.115Z,95709.94
2023-05-17T22:39:10.023Z,95711.44
2023-05-17T22:41:37.678Z,95709.66
2023-05-17T22:44:05.421Z,95712.38
2023-05-17T22:46:34.436Z,95707.41
2023-05-17T22:49:01.936Z,95703.53
2023-05-17T22:51:29.958Z,95699.53
2023-05-17T22:53:57.925Z,95699.09
2023-05-17T22:56:26.152Z,95707.47
2023-05-17T22:58:53.835Z,95695.91
2023-05-17T23:01:21.522Z,95692.19
2023-05-17T23:03:50.637Z,95688.44
2023-05-17T23:06:21.872Z,95694.38
2023-05-17T23:08:49.938Z,95685.53
2023-05-17T23:11:18.022Z,95674.09
2023-05-17T23:13:45.700Z,95682.63
2023-05-17T23:16:13.941Z,95669.56
2023-05-17T23:18:41.719Z,95671.22
2023-05-17T23:21:12.040Z,95666.66
2023-05-17T23:23:40.587Z,95666.66
2023-05-17T23:26:08.293Z,95670.91
2023-05-17T23:28:37.668Z,95665.50
2023-05-17T23:31:05.897Z,95664.72
2023-05-17T23:33:33.601Z,95661.94
2023-05-17T23:36:01.322Z,95650.63
2023-05-17T23:38:30.417Z,95660.16
2023-05-17T23:40:58.253Z,95656.56
2023-05-17T23:43:26.286Z,95658.22
2023-05-17T23:45:54.062Z,95658.22
2023-05-17T23:48:25.639Z,95652.16
2023-05-17T23:50:53.399Z,95648.56
2023-05-17T23:53:23.391Z,95645.13
2023-05-17T23:55:52.521Z,95643.34
2023-05-17T23:58:20.169Z,95642.34
